Moosonee, Canada
Current Conditions -  °F | °C
As of 2:17 AM on Friday 31 Oct 2014 (Local Time) from CYMO Reporting Station
Broken Clouds Broken Clouds  
Wind Chill: -7°   Ceiling: 7000
Heat Index: -2°   Visibility: 9mi
Dew Point: -4°   Wind: 10mph
Humidity: 86%   Direction: 310°NW
Pressure: 30.12"   Gusts: NA
Location:  51.27°N, 80.64°W
Report Text: CYMO 310617Z AUTO 31009KT 9SM BKN070 M02/M04 A3012 RMK SLP201
Loading
Personal Weather Stations






























Interactive Weather Map
Tropical Storm Tracking
New forecast layout! Learn more

10-Day Weather Forecast

Advertisements
Track Severe Weather on mobile